Time;durP1;ratioP1;P1;durP2;ratioP2;P2;SDS_P1;SDS_P2;PMS_P1;PMS_P2;Temp;Humidity;BMP_temperature;BMP_pressure;BME280_temperature;BME280_humidity;BME280_pressure;Samples;Min_cycle;Max_cycle;Signal;HPM_P1;HPM_P2
2022/05/25 00:02:20;;;;;;;2.47;2.08;;;;;;;16.94;62.25;101164.19;4973383;28;102013;-65
2022/05/25 00:04:47;;;;;;;2.40;2.10;;;;;;;16.95;62.02;101160.34;4974078;28;102103;-65
2022/05/25 00:07:16;;;;;;;2.92;2.13;;;;;;;16.94;61.79;101158.69;4970589;28;103921;-65
2022/05/25 00:09:43;;;;;;;2.25;1.80;;;;;;;16.94;61.90;101166.13;4973525;28;102322;-65
2022/05/25 00:12:09;;;;;;;2.30;1.90;;;;;;;16.94;61.85;101166.94;4972040;28;101948;-65
2022/05/25 00:14:39;;;;;;;17.52;3.38;;;;;;;16.94;62.27;101166.13;4974372;28;102175;-65
2022/05/25 00:17:06;;;;;;;2.50;2.30;;;;;;;16.93;61.71;101170.81;4972651;28;103892;-65
2022/05/25 00:22:20;;;;;;;3.15;2.28;;;;;;;16.94;61.77;101175.19;4953290;28;101902;-65
2022/05/25 00:24:47;;;;;;;2.33;1.83;;;;;;;16.93;61.79;101173.56;4956384;28;102194;-65
2022/05/25 00:27:14;;;;;;;2.10;1.90;;;;;;;16.93;62.30;101175.50;4971261;28;103981;-65
2022/05/25 00:29:41;;;;;;;2.10;1.90;;;;;;;16.92;62.20;101171.94;4962724;28;102782;-65
2022/05/25 00:32:08;;;;;;;1.50;1.40;;;;;;;16.93;62.44;101172.75;4970905;28;102601;-65
2022/05/25 00:34:35;;;;;;;2.25;1.80;;;;;;;16.92;61.98;101171.94;4959635;28;102726;-65
2022/05/25 00:37:05;;;;;;;2.33;1.92;;;;;;;16.92;61.98;101176.66;4970936;28;103814;-64
2022/05/25 00:39:31;;;;;;;1.92;1.83;;;;;;;16.92;62.09;101177.44;4973111;28;101935;-65
2022/05/25 00:41:58;;;;;;;2.42;2.17;;;;;;;16.92;62.07;101182.94;4968172;28;102389;-65
2022/05/25 00:44:26;;;;;;;2.30;2.10;;;;;;;16.92;62.16;101184.88;4962305;28;101955;-65
2022/05/25 00:46:54;;;;;;;2.30;2.10;;;;;;;16.91;61.94;101181.31;4960371;28;103814;-65
2022/05/25 00:49:25;;;;;;;2.20;2.00;;;;;;;16.92;61.63;101176.66;4959159;28;101964;-65
2022/05/25 00:51:56;;;;;;;2.15;1.95;;;;;;;16.91;62.28;101181.31;4958834;28;102609;-65
2022/05/25 00:54:26;;;;;;;2.80;1.80;;;;;;;16.91;62.00;101184.06;4964369;28;102714;-65
2022/05/25 00:56:55;;;;;;;2.20;2.00;;;;;;;16.91;61.73;101185.97;4972598;28;103757;-65
2022/05/25 00:59:27;;;;;;;3.17;2.13;;;;;;;16.91;61.98;101181.31;4951684;28;102043;-66
2022/05/25 01:01:56;;;;;;;2.38;2.10;;;;;;;16.90;62.00;101179.69;4953245;28;102010;-65
2022/05/25 01:04:24;;;;;;;2.30;2.10;;;;;;;16.90;61.74;101179.69;4953436;28;102379;-65
2022/05/25 01:07:00;;;;;;;2.00;1.90;;;;;;;16.90;62.01;101176.94;4961440;28;103894;-65
2022/05/25 01:09:40;;;;;;;2.88;1.90;;;;;;;16.90;62.05;101182.44;4972005;28;102128;-65
2022/05/25 01:12:18;;;;;;;2.45;1.98;;;;;;;16.89;61.98;101183.56;4964375;28;102304;-66
2022/05/25 01:15:01;;;;;;;2.33;2.05;;;;;;;16.90;61.86;101182.44;4967761;28;102437;-65
2022/05/25 01:17:38;;;;;;;1.98;1.88;;;;;;;16.90;62.04;101185.16;4952091;28;104133;-65
2022/05/25 01:20:22;;;;;;;1.88;1.75;;;;;;;16.89;61.89;101183.56;4961276;28;102268;-65
2022/05/25 01:23:17;;;;;;;2.30;2.10;;;;;;;16.89;62.01;101178.06;4970787;28;102345;-65
2022/05/25 01:26:20;;;;;;;2.03;1.90;;;;;;;16.88;62.20;101175.59;4971351;28;102158;-64
2022/05/25 01:29:11;;;;;;;2.22;2.03;;;;;;;16.89;62.31;101183.56;4959433;28;103877;-65
2022/05/25 01:31:46;;;;;;;1.95;1.83;;;;;;;16.89;61.78;101194.53;4970085;28;101937;-65
2022/05/25 01:34:22;;;;;;;2.00;1.80;;;;;;;16.89;61.76;101189.06;4964368;28;102424;-64
2022/05/25 01:37:05;;;;;;;2.78;2.00;;;;;;;16.88;62.26;101192.94;4969279;28;102309;-65
2022/05/25 01:39:38;;;;;;;3.03;2.10;;;;;;;16.89;62.09;101188.25;4968210;28;103906;-64
2022/05/25 01:42:12;;;;;;;1.90;1.80;;;;;;;16.88;61.80;101192.94;4972476;28;101897;-65
2022/05/25 01:44:44;;;;;;;2.00;1.90;;;;;;;16.87;61.92;101188.53;4951642;28;102248;-65
2022/05/25 01:47:12;;;;;;;2.33;2.08;;;;;;;16.88;61.90;101192.94;4968560;28;102738;-64
2022/05/25 01:49:45;;;;;;;2.30;1.60;;;;;;;16.88;61.91;101190.19;4967009;28;104286;-65
2022/05/25 01:52:16;;;;;;;2.17;1.80;;;;;;;16.87;61.92;101188.53;4952819;28;102306;-65
2022/05/25 01:54:50;;;;;;;2.63;1.65;;;;;;;16.87;61.81;101194.03;4951801;28;102060;-65
2022/05/25 01:57:18;;;;;;;2.13;1.92;;;;;;;16.87;62.06;101202.25;4953439;28;101915;-65
2022/05/25 01:59:45;;;;;;;2.10;1.90;;;;;;;16.88;62.03;101192.94;4961370;28;103945;-64
2022/05/25 02:05:04;;;;;;;2.00;1.90;;;;;;;16.86;61.57;101197.91;4970237;28;102274;-65
2022/05/25 02:07:43;;;;;;;2.38;2.08;;;;;;;16.87;61.78;101201.47;4972414;28;101969;-65
2022/05/25 02:10:25;;;;;;;2.20;2.00;;;;;;;16.86;61.64;101206.16;4967795;28;103949;-65
2022/05/25 02:13:19;;;;;;;1.90;1.80;;;;;;;16.86;62.21;101206.16;4971817;28;102437;-64
2022/05/25 02:15:59;;;;;;;2.80;1.73;;;;;;;16.86;61.58;101211.63;4970912;28;102132;-64
2022/05/25 02:18:34;;;;;;;2.95;2.22;;;;;;;16.85;62.03;101210.03;4972360;28;102549;-65
2022/05/25 02:21:07;;;;;;;2.00;1.90;;;;;;;16.86;62.12;101224.56;4965105;28;103960;-65
2022/05/25 02:23:43;;;;;;;2.03;1.92;;;;;;;16.86;61.80;101224.56;4952499;28;102288;-65
2022/05/25 02:26:17;;;;;;;3.67;2.22;;;;;;;16.85;61.75;101226.50;4964120;28;102230;-66
2022/05/25 02:28:47;;;;;;;2.17;1.98;;;;;;;16.85;61.79;101234.75;4956830;28;102150;-65
2022/05/25 02:31:18;;;;;;;1.98;1.85;;;;;;;16.85;62.09;101234.75;4970613;28;103894;-65
2022/05/25 02:33:54;;;;;;;2.47;1.67;;;;;;;16.85;62.01;101243.00;4971270;28;102082;-65
2022/05/25 02:36:21;;;;;;;4.15;2.20;;;;;;;16.85;62.18;101247.69;4970407;28;101924;-65
2022/05/25 02:38:47;;;;;;;2.28;2.08;;;;;;;16.85;62.20;101243.00;4961357;28;102577;-66
2022/05/25 02:41:25;;;;;;;2.67;2.03;;;;;;;16.85;62.06;101240.25;4956374;28;103939;-65
2022/05/25 02:43:51;;;;;;;2.30;2.10;;;;;;;16.85;61.97;101243.00;4965967;28;102265;-65
2022/05/25 02:46:18;;;;;;;2.08;1.90;;;;;;;16.85;62.02;101243.00;4962119;28;102209;-65
2022/05/25 02:48:45;;;;;;;2.50;1.95;;;;;;;16.84;62.10;101249.63;4970457;28;102312;-65
2022/05/25 02:51:13;;;;;;;2.10;1.88;;;;;;;16.85;61.92;101247.69;4960647;28;103870;-65
2022/05/25 02:53:40;;;;;;;1.90;1.80;;;;;;;16.85;62.20;101250.44;4955443;28;102564;-65
2022/05/25 02:56:06;;;;;;;2.00;1.80;;;;;;;16.84;62.32;101249.63;4968762;28;102068;-65
2022/05/25 02:58:33;;;;;;;2.22;2.03;;;;;;;16.85;62.01;101248.50;4964162;28;102674;-65
2022/05/25 03:01:00;;;;;;;3.05;2.15;;;;;;;16.85;62.18;101258.69;4953885;28;103887;-65
2022/05/25 03:03:26;;;;;;;1.70;1.60;;;;;;;16.84;62.16;101263.38;4955271;28;102218;-65
2022/05/25 03:05:53;;;;;;;1.80;1.70;;;;;;;16.84;62.16;101257.88;4966728;28;102122;-65
2022/05/25 03:08:23;;;;;;;2.07;1.87;;;;;;;16.84;61.84;101257.88;4956336;28;102495;-65
2022/05/25 03:10:52;;;;;;;2.45;2.08;;;;;;;16.83;61.80;101261.72;4973070;28;103987;-65
2022/05/25 03:13:19;;;;;;;2.00;1.80;;;;;;;16.84;61.72;101268.88;4973367;28;102418;-66
2022/05/25 03:15:45;;;;;;;2.22;2.00;;;;;;;16.86;62.04;101263.88;4972341;28;101989;-65
2022/05/25 03:18:12;;;;;;;1.80;1.70;;;;;;;16.85;61.77;101262.25;4975685;28;102143;-65
2022/05/25 03:20:38;;;;;;;2.35;2.15;;;;;;;16.86;62.13;101268.56;4973286;28;103921;-65
2022/05/25 03:23:09;;;;;;;2.05;1.90;;;;;;;16.86;61.93;101277.63;4974758;28;101983;-65
2022/05/25 03:25:37;;;;;;;2.70;2.17;;;;;;;16.86;61.72;101272.13;4971626;28;102256;-65
2022/05/25 03:28:05;;;;;;;3.00;1.90;;;;;;;16.87;61.93;101283.94;4957256;28;103930;-65
2022/05/25 03:30:32;;;;;;;1.92;1.70;;;;;;;16.87;61.62;101278.44;4973674;28;103943;-65
2022/05/25 03:32:58;;;;;;;2.13;2.00;;;;;;;16.87;61.47;101293.00;4974389;28;102414;-65
2022/05/25 03:35:26;;;;;;;2.85;2.60;;;;;;;16.86;61.78;101283.13;4960420;28;102262;-65
2022/05/25 03:37:53;;;;;;;2.63;1.90;;;;;;;16.88;61.29;101282.81;4971082;28;102161;-65
2022/05/25 03:40:19;;;;;;;3.30;2.10;;;;;;;16.88;61.68;101280.06;4966335;28;103871;-66
2022/05/25 03:42:48;;;;;;;2.60;2.35;;;;;;;16.88;61.65;101286.41;4964681;28;102478;-66
2022/05/25 03:45:15;;;;;;;2.93;2.63;;;;;;;16.88;61.88;101286.41;4973251;28;102423;-65
2022/05/25 03:47:42;;;;;;;2.90;2.50;;;;;;;16.88;61.67;101291.06;4973413;28;101898;-65
2022/05/25 03:50:11;;;;;;;2.85;2.53;;;;;;;16.87;61.50;101293.00;4967363;28;103906;-66
2022/05/25 03:52:38;;;;;;;4.05;2.50;;;;;;;16.89;61.47;101282.53;4973724;28;102134;-65
2022/05/25 03:55:07;;;;;;;3.35;2.50;;;;;;;16.89;61.38;101282.53;4973264;28;102398;-66
2022/05/25 03:57:36;;;;;;;2.65;2.13;;;;;;;16.90;61.92;101278.66;4972543;28;102134;-65
2022/05/25 04:00:06;;;;;;;2.60;2.40;;;;;;;16.91;61.67;101279.47;4972667;28;103964;-65
2022/05/25 04:02:34;;;;;;;2.60;2.40;;;;;;;16.91;61.80;101280.28;4972070;28;102230;-66
2022/05/25 04:05:10;;;;;;;2.67;2.28;;;;;;;16.92;61.85;101281.94;4973440;28;102310;-65
2022/05/25 04:07:40;;;;;;;3.50;2.35;;;;;;;16.92;62.20;101290.19;4973604;28;102249;-66
2022/05/25 04:10:11;;;;;;;2.92;2.33;;;;;;;16.93;62.28;101288.22;4973123;28;103994;-66
2022/05/25 04:12:39;;;;;;;2.58;2.05;;;;;;;16.93;62.73;101300.03;4972900;28;101908;-66
2022/05/25 04:15:09;;;;;;;2.17;1.98;;;;;;;16.93;62.51;101291.78;4973375;28;102213;-66
2022/05/25 04:17:37;;;;;;;2.83;2.40;;;;;;;16.94;62.59;101296.16;4974553;28;102366;-66
2022/05/25 04:20:05;;;;;;;2.20;2.00;;;;;;;16.94;62.55;101296.16;4972799;28;103916;-66
2022/05/25 04:22:32;;;;;;;3.95;2.10;;;;;;;16.95;62.69;101297.81;4968326;28;102599;-66
2022/05/25 04:24:59;;;;;;;2.17;1.98;;;;;;;16.96;62.98;101301.38;4969910;28;101929;-65
2022/05/25 04:27:26;;;;;;;2.22;1.95;;;;;;;16.95;62.96;101303.31;4967075;28;102191;-66
2022/05/25 04:29:53;;;;;;;2.30;2.10;;;;;;;16.96;62.97;101307.69;4972457;28;104025;-66
2022/05/25 04:32:22;;;;;;;3.85;2.00;;;;;;;16.96;63.38;101304.94;4973307;28;101917;-66
2022/05/25 04:34:49;;;;;;;2.17;1.83;;;;;;;16.97;63.31;101306.56;4965963;28;102351;-66
2022/05/25 04:40:01;;;;;;;2.05;1.90;;;;;;;16.98;63.38;101319.19;4953167;28;103986;-66
2022/05/25 04:42:29;;;;;;;1.90;1.80;;;;;;;17.00;63.60;101314.22;4960015;28;102310;-66
2022/05/25 04:44:59;;;;;;;2.15;1.77;;;;;;;17.00;63.39;101310.66;4972407;28;101965;-66
2022/05/25 04:47:29;;;;;;;2.42;2.13;;;;;;;17.00;63.60;101322.47;4969963;28;102060;-66
2022/05/25 04:49:56;;;;;;;1.70;1.60;;;;;;;17.03;63.74;101326.56;4972629;28;104043;-66
2022/05/25 04:52:25;;;;;;;1.80;1.70;;;;;;;17.03;63.69;101323.81;4973155;28;102357;-66
2022/05/25 04:54:53;;;;;;;2.08;1.70;;;;;;;17.02;63.54;101328.50;4953721;28;102224;-66
2022/05/25 04:57:20;;;;;;;3.95;1.85;;;;;;;17.04;63.75;101323.50;4954226;28;102124;-66
2022/05/25 04:59:47;;;;;;;1.98;1.77;;;;;;;17.05;63.70;101330.63;4952757;28;103832;-65
2022/05/25 05:02:14;;;;;;;2.03;1.92;;;;;;;17.07;64.07;101321.28;4966848;28;102563;-66
2022/05/25 05:04:43;;;;;;;1.98;1.83;;;;;;;17.09;63.69;101313.53;4969899;28;101906;-66
2022/05/25 05:07:09;;;;;;;2.05;1.90;;;;;;;17.10;63.90;101318.75;4967706;28;102657;-66
2022/05/25 05:09:38;;;;;;;2.45;1.73;;;;;;;17.11;64.05;101325.88;4967926;28;103797;-66
2022/05/25 05:12:08;;;;;;;1.67;1.58;;;;;;;17.14;64.07;101321.72;4965565;28;102690;-66
2022/05/25 05:14:34;;;;;;;;;;;;;;;17.15;63.80;101320.59;4969941;28;102319;-66
2022/05/25 05:17:03;;;;;;;3.47;1.83;;;;;;;17.16;63.51;101319.47;4969903;28;103734;-66
2022/05/25 05:19:30;;;;;;;2.10;1.90;;;;;;;17.18;63.89;101320.81;4965876;28;103934;-66
2022/05/25 05:21:59;;;;;;;2.20;1.90;;;;;;;17.20;64.03;101315.84;4967334;28;102350;-66
2022/05/25 05:24:27;;;;;;;3.93;2.03;;;;;;;17.23;63.66;101320.72;4961706;28;102139;-66
2022/05/25 05:26:53;;;;;;;1.65;1.55;;;;;;;17.26;63.54;101314.59;4966396;28;102739;-66
2022/05/25 05:29:20;;;;;;;2.70;1.67;;;;;;;17.29;63.71;101321.44;4965269;28;104073;-66
2022/05/25 05:31:46;;;;;;;2.83;1.90;;;;;;;17.30;63.35;101323.06;4971930;28;102650;-66
2022/05/25 05:34:13;;;;;;;2.28;1.92;;;;;;;17.34;63.23;101323.28;4966621;28;102060;-66
2022/05/25 05:36:44;;;;;;;2.38;1.70;;;;;;;17.36;63.69;101318.31;4966005;28;102498;-65
2022/05/25 05:39:17;;;;;;;3.63;2.17;;;;;;;17.38;63.56;101316.91;4964181;28;104275;-65
2022/05/25 05:41:47;;;;;;;2.10;1.92;;;;;;;17.39;63.18;101315.78;4970605;28;102009;-66
2022/05/25 05:44:18;;;;;;;1.60;1.50;;;;;;;17.42;62.85;101320.66;4963938;28;102301;-66
2022/05/25 05:46:49;;;;;;;2.40;2.20;;;;;;;17.43;62.76;101327.81;4953847;28;102391;-66
2022/05/25 05:49:16;;;;;;;2.35;1.73;;;;;;;17.45;62.62;101328.28;4966807;28;104032;-67
2022/05/25 05:51:51;;;;;;;1.92;1.55;;;;;;;17.48;62.87;101326.88;4967365;28;103773;-66
2022/05/25 05:54:19;;;;;;;2.25;1.70;;;;;;;17.50;62.29;101330.16;4960522;28;102428;-66
2022/05/25 05:56:46;;;;;;;1.95;1.77;;;;;;;17.51;62.20;101324.34;4962913;28;102869;-66
2022/05/25 05:59:12;;;;;;;2.42;1.88;;;;;;;17.53;62.63;101326.81;4967285;28;103894;-66
2022/05/25 06:01:39;;;;;;;1.83;1.73;;;;;;;17.54;62.08;101321.00;4970659;28;102400;-67
2022/05/25 06:04:08;;;;;;;2.10;1.90;;;;;;;17.56;62.43;101323.41;4957440;28;102426;-67
2022/05/25 06:06:36;;;;;;;2.33;2.10;;;;;;;17.58;61.96;101331.41;4955420;28;102216;-66
2022/05/25 06:09:06;;;;;;;1.98;1.67;;;;;;;17.58;61.98;101329.44;4962910;28;103890;-66
2022/05/25 06:11:37;;;;;;;2.03;1.83;;;;;;;17.59;62.36;101322.00;4962512;28;102548;-66
2022/05/25 06:14:04;;;;;;;2.45;1.77;;;;;;;17.59;62.22;101328.31;4971837;28;102391;-65
2022/05/25 06:19:33;;;;;;;3.25;1.60;;;;;;;17.61;62.35;101328.03;4955325;28;104042;-65
2022/05/25 06:22:03;;;;;;;2.70;1.67;;;;;;;17.69;62.61;101332.84;4969972;28;102443;-66
2022/05/25 06:24:35;;;;;;;4.20;1.70;;;;;;;17.68;61.90;101332.03;4953316;28;102571;-67
2022/05/25 06:27:05;;;;;;;2.97;1.65;;;;;;;17.68;62.06;101336.72;4970012;28;102225;-66
2022/05/25 06:29:37;;;;;;;2.42;1.90;;;;;;;17.68;62.54;101342.22;4966447;28;104067;-67
2022/05/25 06:32:06;;;;;;;3.22;1.77;;;;;;;17.66;62.11;101333.44;4971346;28;102489;-66
2022/05/25 06:34:33;;;;;;;1.60;1.50;;;;;;;17.69;62.17;101341.09;4970402;28;102445;-66
2022/05/25 06:37:00;;;;;;;3.28;1.70;;;;;;;17.68;62.22;101345.78;4962793;28;102265;-66
2022/05/25 06:39:27;;;;;;;2.03;1.75;;;;;;;17.70;62.04;101345.47;4951626;28;104032;-66
2022/05/25 06:41:56;;;;;;;1.95;1.70;;;;;;;17.70;61.95;101340.78;4969410;28;102354;-66
2022/05/25 06:44:27;;;;;;;1.80;1.30;;;;;;;17.71;62.20;101341.63;4971251;28;101902;-66
2022/05/25 06:46:54;;;;;;;2.40;1.75;;;;;;;17.72;62.46;101343.25;4972310;28;102535;-66
2022/05/25 06:49:21;;;;;;;2.05;1.50;;;;;;;17.73;62.02;101350.38;4970770;28;103786;-66
2022/05/25 06:51:47;;;;;;;1.67;1.58;;;;;;;17.74;62.30;101341.81;4971480;28;102326;-66
2022/05/25 06:54:15;;;;;;;2.03;1.50;;;;;;;17.74;62.19;101346.50;4971468;28;102495;-65
2022/05/25 06:56:42;;;;;;;1.65;1.55;;;;;;;17.75;62.26;101348.13;4972081;28;102585;-65
2022/05/25 06:59:11;;;;;;;2.33;1.75;;;;;;;17.76;61.56;101349.78;4962368;28;103943;-65
2022/05/25 07:01:41;;;;;;;1.80;1.70;;;;;;;17.76;62.01;101349.78;4970750;28;101864;-66
2022/05/25 07:04:09;;;;;;;1.50;1.40;;;;;;;17.77;61.77;101354.16;4971087;28;102284;-67
2022/05/25 07:06:37;;;;;;;1.40;1.30;;;;;;;17.78;62.24;101355.81;4972025;28;102653;-66
2022/05/25 07:09:05;;;;;;;1.80;1.60;;;;;;;17.78;61.72;101353.06;4969806;28;103919;-66
2022/05/25 07:11:31;;;;;;;1.85;1.73;;;;;;;17.77;62.37;101351.41;4951416;28;101993;-67
2022/05/25 07:13:59;;;;;;;1.40;1.30;;;;;;;17.78;62.10;101347.56;4953309;28;102301;-65
2022/05/25 07:16:27;;;;;;;2.15;1.55;;;;;;;17.79;62.20;101353.88;4970544;28;102211;-66
2022/05/25 07:18:54;;;;;;;2.03;1.83;;;;;;;17.78;61.86;101353.06;4965817;28;104097;-65
2022/05/25 07:21:27;;;;;;;1.53;1.43;;;;;;;17.79;61.82;101353.88;4971028;28;102110;-65
2022/05/25 07:23:58;;;;;;;1.27;1.20;;;;;;;17.79;61.98;101353.88;4956650;28;102078;-66
2022/05/25 07:26:26;;;;;;;1.70;1.40;;;;;;;17.79;61.98;101353.88;4969241;28;102791;-66
2022/05/25 07:28:53;;;;;;;1.80;1.57;;;;;;;17.80;62.01;101361.81;4970656;28;103990;-66
2022/05/25 07:31:23;;;;;;;1.40;1.30;;;;;;;17.81;62.10;101363.44;4970570;28;102334;-65
2022/05/25 07:33:58;;;;;;;1.90;1.58;;;;;;;17.80;62.35;101364.59;4971342;28;102453;-65
2022/05/25 07:36:25;;;;;;;1.40;1.30;;;;;;;17.80;61.94;101359.06;4964207;28;102547;-66
2022/05/25 07:38:55;;;;;;;1.45;1.33;;;;;;;17.81;62.15;101363.44;4968534;28;103791;-66
2022/05/25 07:41:22;;;;;;;1.90;1.70;;;;;;;17.81;62.38;101366.19;4968248;28;102751;-66
2022/05/25 07:43:57;;;;;;;1.98;1.75;;;;;;;17.82;62.15;101362.34;4957098;28;102075;-66
2022/05/25 07:46:25;;;;;;;1.65;1.50;;;;;;;17.81;62.27;101363.44;4969276;28;102098;-66
2022/05/25 07:48:51;;;;;;;1.85;1.33;;;;;;;17.82;61.92;101358.78;4973662;28;103871;-66
2022/05/25 07:51:20;;;;;;;1.80;1.70;;;;;;;17.79;62.49;101360.19;4970512;28;102428;-66
2022/05/25 07:53:58;;;;;;;1.63;1.52;;;;;;;17.76;62.39;101358.88;4970407;28;102039;-66
2022/05/25 07:56:30;;;;;;;1.70;1.60;;;;;;;17.76;62.53;101356.13;4967361;28;102159;-66
2022/05/25 07:58:59;;;;;;;1.55;1.45;;;;;;;17.76;62.56;101356.13;4968597;28;103801;-65
2022/05/25 08:07:05;;;;;;;2.45;1.70;;;;;;;17.81;62.36;101376.41;4972061;28;102481;-64
2022/05/25 08:09:33;;;;;;;2.03;1.30;;;;;;;17.80;62.47;101381.09;4954343;28;103895;-64
2022/05/25 08:12:01;;;;;;;1.20;1.10;;;;;;;17.82;62.06;101387.13;4968320;28;102349;-65
2022/05/25 08:14:29;;;;;;;1.15;1.05;;;;;;;17.83;61.81;101361.22;4971876;28;102623;-66
2022/05/25 08:16:55;;;;;;;1.53;1.43;;;;;;;17.82;62.14;101372.56;4973175;28;102380;-65
2022/05/25 08:19:23;;;;;;;1.58;1.48;;;;;;;17.82;62.30;101370.59;4967003;28;103900;-65
2022/05/25 08:21:52;;;;;;;1.20;1.10;;;;;;;17.84;62.24;101364.78;4968177;28;102533;-66
2022/05/25 08:24:21;;;;;;;;;;;;;;;17.86;61.84;101371.63;4961915;28;102466;-66
2022/05/25 08:26:48;;;;;;;1.20;1.02;;;;;;;17.86;61.72;101368.88;4967963;28;102155;-65
2022/05/25 08:29:19;;;;;;;1.63;1.27;;;;;;;17.86;61.79;101365.31;4969943;28;104118;-66
2022/05/25 08:31:45;;;;;;;1.88;1.20;;;;;;;17.87;61.64;101362.25;4970989;28;102550;-65
2022/05/25 08:34:12;;;;;;;1.60;1.50;;;;;;;17.87;61.95;101365.00;4971245;28;102388;-66
2022/05/25 08:36:39;;;;;;;1.42;1.33;;;;;;;17.86;61.96;101366.13;4971147;28;102252;-66
2022/05/25 08:39:05;;;;;;;2.28;1.35;;;;;;;17.86;61.73;101360.63;4954140;28;103479;-67
2022/05/25 08:41:37;;;;;;;1.38;1.20;;;;;;;17.86;61.53;101371.63;4952647;28;102508;-65
2022/05/25 08:44:05;;;;;;;1.33;1.20;;;;;;;17.88;61.84;101369.38;4934344;28;102430;-65
2022/05/25 08:46:32;;;;;;;3.33;1.38;;;;;;;17.87;61.42;101367.75;4944202;28;102615;-64
2022/05/25 08:49:01;;;;;;;1.38;1.27;;;;;;;17.86;61.84;101370.81;4944741;28;104264;-67
2022/05/25 08:51:31;;;;;;;1.55;1.23;;;;;;;17.84;61.42;101373.84;4951691;28;102058;-65
2022/05/25 08:53:58;;;;;;;;;;;;;;;17.84;61.32;101373.84;4950114;28;102814;-66
2022/05/25 08:56:34;;;;;;;1.63;1.20;;;;;;;17.84;61.78;101376.63;4952003;28;102303;-66
2022/05/25 08:59:05;;;;;;;1.40;1.30;;;;;;;17.83;62.08;101372.22;4943778;28;104108;-65
2022/05/25 09:01:37;;;;;;;1.30;1.20;;;;;;;17.82;61.74;101373.38;4947061;28;102057;-66
2022/05/25 09:04:12;;;;;;;1.30;1.10;;;;;;;17.81;62.02;101379.97;4946136;28;102316;-64
2022/05/25 09:06:47;;;;;;;2.58;1.38;;;;;;;17.79;61.99;101376.72;4951647;28;102546;-66
2022/05/25 09:09:24;;;;;;;2.20;1.55;;;;;;;17.78;62.14;101380.59;4949422;28;103536;-66
2022/05/25 09:12:09;;;;;;;1.55;1.10;;;;;;;17.77;62.11;101384.47;4943474;28;102941;-64
2022/05/25 09:14:48;;;;;;;1.30;1.20;;;;;;;17.74;62.43;101377.59;4946075;28;102547;-66
2022/05/25 09:17:21;;;;;;;1.65;1.45;;;;;;;17.72;62.79;101370.75;4948339;28;102433;-66
2022/05/25 09:19:49;;;;;;;1.83;1.58;;;;;;;17.71;63.04;101380.16;4932713;28;103891;-66
2022/05/25 09:22:19;;;;;;;1.60;1.50;;;;;;;17.71;62.58;101382.91;4932770;28;101906;-66
2022/05/25 09:24:47;;;;;;;1.48;1.38;;;;;;;17.69;62.80;101380.44;4946666;28;102524;-66
2022/05/25 09:27:17;;;;;;;1.65;1.35;;;;;;;17.71;62.93;101374.66;4953037;28;101918;-65
2022/05/25 09:29:46;;;;;;;1.75;1.50;;;;;;;17.71;63.01;101369.16;4948729;28;104020;-66
2022/05/25 09:32:30;;;;;;;2.90;1.35;;;;;;;17.70;62.99;101373.81;4948654;28;102374;-66
2022/05/25 09:35:01;;;;;;;3.38;1.20;;;;;;;17.69;62.91;101382.38;4950768;28;102138;-66
2022/05/25 09:37:46;;;;;;;2.47;1.52;;;;;;;17.66;62.76;101374.72;4951895;28;102233;-66
2022/05/25 09:40:20;;;;;;;2.78;1.63;;;;;;;17.66;62.76;101380.22;4966774;28;104346;-66
2022/05/25 09:42:51;;;;;;;1.40;1.30;;;;;;;17.66;63.10;101377.47;4966315;28;102738;-66
2022/05/25 09:45:20;;;;;;;1.50;1.40;;;;;;;17.66;62.85;101372.78;4966231;28;102353;-65
2022/05/25 09:47:49;;;;;;;1.60;1.50;;;;;;;17.65;63.24;101381.34;4958171;28;102464;-66
2022/05/25 09:50:28;;;;;;;1.65;1.55;;;;;;;17.64;62.83;101371.47;4961208;28;103842;-65
2022/05/25 09:52:55;;;;;;;1.45;1.30;;;;;;;17.65;63.06;101375.84;4968548;28;102258;-65
2022/05/25 09:55:25;;;;;;;1.45;1.35;;;;;;;17.65;63.07;101356.59;4968098;28;102375;-66
2022/05/25 09:57:56;;;;;;;1.85;1.48;;;;;;;17.67;62.52;101357.06;4954784;28;102314;-65
2022/05/25 10:00:44;;;;;;;1.60;1.50;;;;;;;17.68;63.00;101375.25;4951956;28;103931;-65
2022/05/25 10:03:13;;;;;;;1.60;1.50;;;;;;;17.68;62.60;101369.75;4968115;28;102553;-66
2022/05/25 10:05:53;;;;;;;1.60;1.40;;;;;;;17.67;62.88;101368.94;4969204;28;102362;-66
2022/05/25 10:08:27;;;;;;;2.92;1.55;;;;;;;17.69;62.57;101365.88;4972225;28;102598;-66
2022/05/25 10:10:57;;;;;;;1.70;1.60;;;;;;;17.67;62.56;101357.91;4970749;28;104060;-66
2022/05/25 10:13:29;;;;;;;1.50;1.40;;;;;;;17.64;62.99;101369.53;4957341;28;102406;-65
2022/05/25 10:16:01;;;;;;;1.70;1.38;;;;;;;17.64;63.02;101374.22;4971140;28;102140;-65
2022/05/25 10:18:36;;;;;;;1.70;1.60;;;;;;;17.64;63.10;101357.72;4964629;28;102098;-65
2022/05/25 10:21:07;;;;;;;2.28;1.50;;;;;;;17.63;63.13;101367.06;4959529;28;103823;-65
2022/05/25 10:23:40;;;;;;;1.73;1.38;;;;;;;17.61;63.13;101366.56;4970286;28;102464;-66
2022/05/25 10:26:11;;;;;;;1.65;1.55;;;;;;;17.60;63.08;101357.50;4955152;28;101955;-65
2022/05/25 10:28:47;;;;;;;1.70;1.35;;;;;;;17.60;63.41;101359.41;4962208;28;104314;-66
2022/05/25 10:37:12;;;;;;;1.90;1.35;;;;;;;17.59;63.55;101349.53;4966331;28;102339;-64
2022/05/25 10:39:41;;;;;;;1.67;1.58;;;;;;;17.60;63.30;101351.16;4972987;28;101927;-65
2022/05/25 10:42:16;;;;;;;2.45;1.67;;;;;;;17.59;63.62;101349.53;4970285;28;104101;-66
2022/05/25 10:45:02;;;;;;;2.60;1.63;;;;;;;17.59;63.07;101352.28;4962173;28;102305;-65
2022/05/25 10:47:46;;;;;;;1.73;1.63;;;;;;;17.59;63.72;101346.78;4950895;28;102434;-65
2022/05/25 10:50:19;;;;;;;1.40;1.30;;;;;;;17.59;63.30;101344.03;4966485;28;102570;-63
2022/05/25 10:52:51;;;;;;;2.15;1.70;;;;;;;17.58;63.10;101345.97;4955401;28;103939;-65
2022/05/25 10:55:18;;;;;;;3.75;1.90;;;;;;;17.59;62.97;101336.59;4970606;28;102282;-65
2022/05/25 10:58:23;;;;;;;2.33;1.77;;;;;;;17.57;63.52;101341.59;4967841;28;101984;-64
2022/05/25 11:01:04;;;;;;;2.05;1.50;;;;;;;17.57;63.38;101349.84;4966796;28;102065;-63
2022/05/25 11:03:51;;;;;;;1.80;1.70;;;;;;;17.55;63.75;101343.81;4961295;28;104064;-64
2022/05/25 11:06:40;;;;;;;1.90;1.70;;;;;;;17.54;63.01;101343.00;4968703;28;102376;-63
2022/05/25 11:09:16;;;;;;;;;;;;;;;17.52;63.67;101347.97;4952747;28;102527;-64
2022/05/25 11:11:46;;;;;;;;;;;;;;;17.54;63.32;101348.50;4959606;28;102439;-64
2022/05/25 11:14:32;;;;;;;;;;;;;;;17.53;63.37;101344.13;4968503;28;103990;-63
2022/05/25 11:17:05;;;;;;;;;;;;;;;17.53;63.41;101346.06;4966552;28;102454;-64
2022/05/25 11:19:39;;;;;;;;;;;;;;;17.52;63.16;101342.47;4964595;28;103017;-64
2022/05/25 11:22:16;;;;;;;;;;;;;;;17.53;63.27;101352.38;4972833;28;102526;-64
2022/05/25 11:24:56;;;;;;;;;;;;;;;17.51;63.49;101343.59;4971829;28;103953;-65
2022/05/25 11:27:32;;;;;;;;;;;;;;;17.52;63.62;101345.22;4964230;28;102322;-64
2022/05/25 11:30:05;;;;;;;;;;;;;;;17.54;63.14;101344.94;4965537;28;102393;-65
2022/05/25 11:32:38;;;;;;;;;;;;;;;17.52;63.23;101350.72;4964719;28;102404;-65
2022/05/25 11:35:15;;;;;;;;;;;;;;;17.51;63.52;101353.81;4963109;28;103875;-64
2022/05/25 11:37:47;;;;;;;;;;;;;;;17.50;63.38;101344.72;4968533;28;102926;-63
2022/05/25 11:40:19;;;;;;;;;;;;;;;17.49;63.70;101345.84;4970251;28;102409;-63
2022/05/25 11:42:56;;;;;;;;;;;;;;;17.50;63.66;101341.16;4975071;28;102718;-66
2022/05/25 11:45:34;;;;;;;;;;;;;;;17.49;63.34;101351.38;4967986;28;103683;-65
2022/05/25 11:48:12;;;;;;;;;;;;;;;17.48;63.40;101344.19;4974628;28;102312;-65
2022/05/25 11:50:44;;;;;;;;;;;;;;;17.49;63.44;101345.84;4954826;28;102406;-66
2022/05/25 11:53:31;;;;;;;;;;;;;;;17.49;63.32;101351.38;4960289;28;102636;-64
2022/05/25 11:56:05;;;;;;;;;;;;;;;17.48;63.41;101360.72;4967823;28;103940;-65
2022/05/25 11:58:40;;;;;;;;;;;;;;;17.47;63.59;101359.09;4971670;28;102408;-65
2022/05/25 12:01:11;;;;;;;;;;;;;;;17.47;63.45;101353.59;4970300;28;102513;-65
2022/05/25 12:03:56;;;;;;;;;;;;;;;17.47;63.90;101358.28;4959817;28;102797;-64
2022/05/25 12:06:37;;;;;;;;;;;;;;;17.46;63.77;101362.16;4965426;28;103854;-64